Time;durP1;ratioP1;P1;durP2;ratioP2;P2;SDS_P1;SDS_P2;PMS_P1;PMS_P2;Temp;Humidity;BMP_temperature;BMP_pressure;BME280_temperature;BME280_humidity;BME280_pressure;Samples;Min_cycle;Max_cycle;Signal;HPM_P1;HPM_P2
2022/07/16 00:02:43;;;;;;;7.78;5.38;;;;;;;;;;5020192;28;20033;-59
2022/07/16 00:05:09;;;;;;;9.30;5.70;;;;;;;;;;5023640;28;20030;-59
2022/07/16 00:07:35;;;;;;;8.18;5.53;;;;;;;;;;5019027;28;20027;-59
2022/07/16 00:10:00;;;;;;;11.45;5.55;;;;;;;;;;5024830;28;20041;-59
2022/07/16 00:12:26;;;;;;;9.65;5.57;;;;;;;;;;5013450;28;20060;-59
2022/07/16 00:14:52;;;;;;;7.53;5.35;;;;;;;;;;5019256;28;20030;-59
2022/07/16 00:17:17;;;;;;;9.25;5.40;;;;;;;;;;5018742;28;20032;-59
2022/07/16 00:19:43;;;;;;;8.07;4.90;;;;;;;;;;5019284;28;20053;-59
2022/07/16 00:22:09;;;;;;;10.43;5.50;;;;;;;;;;5021314;28;20185;-59
2022/07/16 00:24:34;;;;;;;8.20;5.43;;;;;;;;;;5017367;28;20029;-59
2022/07/16 00:27:00;;;;;;;7.20;4.72;;;;;;;;;;5015045;28;20056;-59
2022/07/16 00:29:25;;;;;;;8.88;5.22;;;;;;;;;;5019681;28;20025;-59
2022/07/16 00:31:51;;;;;;;8.80;5.93;;;;;;;;;;5024042;28;20028;-59
2022/07/16 00:34:17;;;;;;;8.82;5.70;;;;;;;;;;5017147;28;20491;-60
2022/07/16 00:36:44;;;;;;;6.93;5.18;;;;;;;;;;5014401;28;20406;-59
2022/07/16 00:39:10;;;;;;;8.00;5.65;;;;;;;;;;5014310;28;20427;-59
2022/07/16 00:41:40;;;;;;;9.48;5.05;;;;;;;;;;5016785;28;20481;-59
2022/07/16 00:44:08;;;;;;;10.27;5.70;;;;;;;;;;5020283;28;20037;-59
2022/07/16 00:46:34;;;;;;;9.50;5.43;;;;;;;;;;5022694;28;20033;-58
2022/07/16 00:49:00;;;;;;;9.70;5.55;;;;;;;;;;5025766;28;20029;-58
2022/07/16 00:51:26;;;;;;;7.43;5.53;;;;;;;;;;4987385;28;1116171;-58
2022/07/16 00:53:53;;;;;;;7.75;5.38;;;;;;;;;;5027111;28;20280;-58
2022/07/16 00:56:18;;;;;;;8.65;5.30;;;;;;;;;;5024575;28;20510;-58
2022/07/16 00:58:45;;;;;;;7.85;5.47;;;;;;;;;;5026606;28;20056;-57
2022/07/16 01:01:12;;;;;;;9.07;5.40;;;;;;;;;;5024843;28;20029;-59
2022/07/16 01:03:39;;;;;;;8.48;5.03;;;;;;;;;;5026214;28;20052;-58
2022/07/16 01:06:06;;;;;;;10.20;5.25;;;;;;;;;;5024002;28;20056;-58
2022/07/16 01:08:37;;;;;;;11.80;5.70;;;;;;;;;;5023908;28;20021;-58
2022/07/16 01:11:07;;;;;;;8.73;5.65;;;;;;;;;;5023194;28;20378;-58
2022/07/16 01:13:33;;;;;;;;;;;;;;;;;;5028675;28;20055;-59
2022/07/16 01:15:59;;;;;;;8.98;5.72;;;;;;;;;;5022727;28;19936;-59
2022/07/16 01:18:24;;;;;;;10.48;5.50;;;;;;;;;;5027584;28;20025;-59
2022/07/16 01:20:50;;;;;;;10.13;5.72;;;;;;;;;;5026810;28;20025;-59
2022/07/16 01:23:23;;;;;;;8.20;5.20;;;;;;;;;;5026864;28;20183;-59
2022/07/16 01:25:49;;;;;;;8.95;5.50;;;;;;;;;;5022885;28;20030;-58
2022/07/16 01:28:15;;;;;;;8.13;5.97;;;;;;;;;;5025267;28;20030;-58
2022/07/16 01:30:41;;;;;;;11.07;5.60;;;;;;;;;;5026076;28;20049;-58
2022/07/16 01:33:23;;;;;;;9.70;5.88;;;;;;;;;;5021954;28;20390;-58
2022/07/16 01:35:50;;;;;;;8.68;5.47;;;;;;;;;;5019797;28;20031;-58
2022/07/16 01:38:16;;;;;;;9.70;5.70;;;;;;;;;;5020340;28;20084;-58
2022/07/16 01:40:41;;;;;;;7.15;5.45;;;;;;;;;;5027309;28;20486;-58
2022/07/16 01:43:22;;;;;;;8.55;5.30;;;;;;;;;;5020780;28;20345;-58
2022/07/16 01:45:47;;;;;;;8.15;5.65;;;;;;;;;;5026041;28;20044;-58
2022/07/16 01:48:14;;;;;;;8.27;5.72;;;;;;;;;;5027502;28;20041;-59
2022/07/16 01:50:40;;;;;;;10.25;5.85;;;;;;;;;;5027378;28;20052;-58
2022/07/16 01:53:06;;;;;;;11.05;5.63;;;;;;;;;;5029271;28;20061;-59
2022/07/16 01:55:33;;;;;;;11.02;6.82;;;;;;;;;;5028337;28;20118;-58
2022/07/16 01:58:00;;;;;;;10.90;5.70;;;;;;;;;;5031048;28;20033;-59
2022/07/16 02:00:26;;;;;;;12.63;5.55;;;;;;;;;;5029685;28;20055;-58
2022/07/16 02:02:52;;;;;;;10.57;5.80;;;;;;;;;;5026915;28;20052;-58
2022/07/16 02:05:17;;;;;;;9.90;6.05;;;;;;;;;;5025894;28;20507;-58
2022/07/16 02:07:42;;;;;;;9.20;5.65;;;;;;;;;;5026740;28;20533;-59
2022/07/16 02:10:09;;;;;;;7.57;5.65;;;;;;;;;;5029049;28;20022;-59
2022/07/16 02:12:34;;;;;;;7.65;5.65;;;;;;;;;;5026932;28;20498;-59
2022/07/16 02:15:00;;;;;;;9.10;5.80;;;;;;;;;;5029329;28;20032;-58
2022/07/16 02:17:25;;;;;;;8.85;5.47;;;;;;;;;;5026861;28;20041;-59
2022/07/16 02:19:51;;;;;;;9.45;5.57;;;;;;;;;;5027365;28;20024;-58
2022/07/16 02:22:16;;;;;;;9.73;5.53;;;;;;;;;;5026001;28;20034;-59
2022/07/16 02:24:42;;;;;;;9.95;5.97;;;;;;;;;;5022506;28;20029;-60
2022/07/16 02:27:07;;;;;;;12.25;5.53;;;;;;;;;;5025417;28;20415;-59
2022/07/16 02:29:33;;;;;;;11.20;5.85;;;;;;;;;;5028965;28;20032;-59
2022/07/16 02:31:58;;;;;;;10.50;6.28;;;;;;;;;;5030520;28;20487;-59
2022/07/16 02:34:24;;;;;;;7.38;5.63;;;;;;;;;;5029553;28;20482;-59
2022/07/16 02:36:49;;;;;;;9.30;5.95;;;;;;;;;;5020818;28;20076;-59
2022/07/16 02:39:14;;;;;;;9.75;6.68;;;;;;;;;;5021136;28;20018;-59
2022/07/16 02:41:40;;;;;;;8.20;5.68;;;;;;;;;;5021792;28;20513;-59
2022/07/16 02:44:05;;;;;;;9.77;5.95;;;;;;;;;;5027084;28;20025;-59
2022/07/16 02:46:31;;;;;;;9.55;6.38;;;;;;;;;;5029981;28;20447;-60
2022/07/16 02:48:56;;;;;;;10.68;6.32;;;;;;;;;;5029579;28;20025;-59
2022/07/16 02:51:22;;;;;;;12.35;6.45;;;;;;;;;;5029079;28;20395;-59
2022/07/16 02:53:47;;;;;;;10.40;6.32;;;;;;;;;;5030012;28;20052;-59
2022/07/16 02:56:12;;;;;;;8.40;6.05;;;;;;;;;;5026348;28;20032;-59
2022/07/16 02:58:38;;;;;;;9.45;5.80;;;;;;;;;;5027328;28;20029;-59
2022/07/16 03:01:03;;;;;;;11.85;6.40;;;;;;;;;;5029509;28;20029;-59
2022/07/16 03:03:29;;;;;;;8.75;6.60;;;;;;;;;;5027033;28;20030;-59
2022/07/16 03:05:54;;;;;;;11.15;6.60;;;;;;;;;;5027125;28;20033;-59
2022/07/16 03:08:20;;;;;;;9.20;5.82;;;;;;;;;;5025031;28;20526;-59
2022/07/16 03:10:45;;;;;;;11.27;6.38;;;;;;;;;;5026339;28;20033;-59
2022/07/16 03:13:11;;;;;;;13.45;6.80;;;;;;;;;;5024651;28;20025;-60
2022/07/16 03:15:37;;;;;;;9.93;6.32;;;;;;;;;;5029194;28;20029;-59
2022/07/16 03:18:02;;;;;;;9.43;6.18;;;;;;;;;;5024833;28;20458;-59
2022/07/16 03:20:28;;;;;;;11.57;6.53;;;;;;;;;;5025461;28;20030;-59
2022/07/16 03:22:53;;;;;;;10.20;6.43;;;;;;;;;;5025150;28;20188;-60
2022/07/16 03:25:19;;;;;;;7.85;6.07;;;;;;;;;;5028202;28;20080;-60
2022/07/16 03:27:46;;;;;;;12.00;5.90;;;;;;;;;;5023564;28;20041;-59
2022/07/16 03:30:13;;;;;;;9.90;6.82;;;;;;;;;;5020684;28;20395;-59
2022/07/16 03:32:38;;;;;;;10.77;6.45;;;;;;;;;;5026019;28;20025;-59
2022/07/16 03:35:08;;;;;;;13.77;6.88;;;;;;;;;;5027724;28;20036;-59
2022/07/16 03:37:34;;;;;;;11.73;6.55;;;;;;;;;;5023606;28;20068;-59
2022/07/16 03:39:59;;;;;;;12.77;7.30;;;;;;;;;;5027175;28;20044;-59
2022/07/16 03:42:25;;;;;;;10.75;6.35;;;;;;;;;;5029608;28;20096;-59
2022/07/16 03:44:50;;;;;;;9.77;6.43;;;;;;;;;;5029012;28;20025;-59
2022/07/16 03:47:16;;;;;;;11.07;6.80;;;;;;;;;;5026944;28;20021;-59
2022/07/16 03:49:41;;;;;;;11.75;6.68;;;;;;;;;;5028679;28;20033;-59
2022/07/16 03:52:06;;;;;;;12.32;6.47;;;;;;;;;;5027060;28;20041;-59
2022/07/16 03:54:32;;;;;;;10.68;6.93;;;;;;;;;;5026118;28;20029;-59
2022/07/16 03:56:57;;;;;;;16.90;7.55;;;;;;;;;;5023386;28;20030;-59
2022/07/16 03:59:23;;;;;;;13.70;7.18;;;;;;;;;;5027911;28;20028;-60
2022/07/16 04:01:48;;;;;;;14.98;6.75;;;;;;;;;;5026837;28;20490;-59
2022/07/16 04:04:14;;;;;;;13.65;7.03;;;;;;;;;;5029662;28;20037;-59
2022/07/16 04:06:39;;;;;;;11.73;6.90;;;;;;;;;;5025379;28;20053;-59
2022/07/16 04:09:05;;;;;;;16.35;7.35;;;;;;;;;;5027200;28;20037;-60
2022/07/16 04:11:30;;;;;;;15.13;7.40;;;;;;;;;;5024902;28;20457;-60
2022/07/16 04:13:55;;;;;;;14.70;7.03;;;;;;;;;;5028961;28;20056;-59
2022/07/16 04:16:21;;;;;;;10.25;6.70;;;;;;;;;;5024078;28;20025;-60
2022/07/16 04:18:46;;;;;;;12.52;7.15;;;;;;;;;;5022415;28;20029;-59
2022/07/16 04:21:12;;;;;;;10.48;6.78;;;;;;;;;;5020389;28;20034;-60
2022/07/16 04:23:37;;;;;;;11.23;6.88;;;;;;;;;;5028124;28;20022;-59
2022/07/16 04:26:03;;;;;;;10.20;6.38;;;;;;;;;;5023589;28;20092;-60
2022/07/16 04:28:28;;;;;;;13.52;6.63;;;;;;;;;;5026595;28;20087;-59
2022/07/16 04:30:54;;;;;;;10.43;7.07;;;;;;;;;;5022543;28;20056;-60
2022/07/16 04:33:20;;;;;;;11.57;6.15;;;;;;;;;;5023019;28;20053;-60
2022/07/16 04:35:45;;;;;;;10.57;6.30;;;;;;;;;;5027795;28;20025;-60
2022/07/16 04:38:11;;;;;;;12.95;7.28;;;;;;;;;;5022623;28;20044;-60
2022/07/16 04:40:36;;;;;;;11.05;7.00;;;;;;;;;;5024965;28;20032;-59
2022/07/16 04:43:01;;;;;;;13.45;7.53;;;;;;;;;;5028485;28;20530;-59
2022/07/16 04:45:27;;;;;;;15.73;7.97;;;;;;;;;;5027932;28;20082;-59
2022/07/16 04:47:52;;;;;;;13.25;8.43;;;;;;;;;;5024634;28;20116;-59
2022/07/16 04:50:18;;;;;;;12.50;7.57;;;;;;;;;;5025221;28;20088;-59
2022/07/16 04:52:43;;;;;;;12.68;7.05;;;;;;;;;;5025995;28;20029;-60
2022/07/16 04:55:09;;;;;;;11.25;7.32;;;;;;;;;;5027855;28;20483;-59
2022/07/16 04:57:34;;;;;;;13.77;7.53;;;;;;;;;;5027754;28;20025;-59
2022/07/16 05:00:00;;;;;;;10.55;7.13;;;;;;;;;;5024628;28;20148;-59
2022/07/16 05:05:09;;;;;;;12.18;7.38;;;;;;;;;;5029063;28;20036;-62
2022/07/16 05:07:35;;;;;;;11.32;7.20;;;;;;;;;;5026444;28;20029;-62
2022/07/16 05:10:01;;;;;;;12.07;7.53;;;;;;;;;;5024860;28;20033;-62
2022/07/16 05:12:26;;;;;;;16.60;7.55;;;;;;;;;;5028224;28;20033;-62
2022/07/16 05:14:52;;;;;;;11.77;7.03;;;;;;;;;;5024134;28;20063;-62
2022/07/16 05:17:17;;;;;;;11.82;6.72;;;;;;;;;;5023130;28;20029;-62
2022/07/16 05:19:43;;;;;;;12.40;6.78;;;;;;;;;;5020923;28;20048;-62
2022/07/16 05:22:08;;;;;;;11.68;7.32;;;;;;;;;;5027679;28;20026;-62
2022/07/16 05:24:34;;;;;;;15.55;7.45;;;;;;;;;;5025563;28;20403;-63
2022/07/16 05:26:59;;;;;;;15.63;8.60;;;;;;;;;;5030793;28;20172;-62
2022/07/16 05:29:25;;;;;;;13.38;8.20;;;;;;;;;;5029193;28;20021;-63
2022/07/16 05:31:51;;;;;;;14.52;8.30;;;;;;;;;;5021478;28;20070;-62
2022/07/16 05:34:16;;;;;;;12.95;8.20;;;;;;;;;;5023024;28;20042;-62
2022/07/16 05:36:42;;;;;;;17.40;9.20;;;;;;;;;;5027917;28;20124;-62
2022/07/16 05:39:07;;;;;;;12.40;8.48;;;;;;;;;;5025827;28;20033;-62
2022/07/16 05:41:33;;;;;;;14.60;9.15;;;;;;;;;;5029091;28;20021;-62
2022/07/16 05:44:00;;;;;;;15.68;8.65;;;;;;;;;;5032390;28;20033;-62
2022/07/16 05:46:25;;;;;;;14.15;8.52;;;;;;;;;;5031956;28;20025;-62
2022/07/16 05:48:51;;;;;;;12.48;8.15;;;;;;;;;;5029932;28;20099;-62
2022/07/16 05:51:16;;;;;;;17.92;8.77;;;;;;;;;;5027233;28;20033;-62
2022/07/16 05:53:42;;;;;;;14.95;8.27;;;;;;;;;;5028761;28;20537;-62
2022/07/16 05:56:07;;;;;;;14.77;9.27;;;;;;;;;;5030576;28;20119;-62
2022/07/16 05:58:32;;;;;;;16.38;8.02;;;;;;;;;;5031317;28;20120;-63
2022/07/16 06:00:58;;;;;;;12.85;7.72;;;;;;;;;;5029307;28;20431;-62
2022/07/16 06:03:23;;;;;;;11.88;7.35;;;;;;;;;;5027152;28;20022;-62
2022/07/16 06:05:49;;;;;;;15.00;7.75;;;;;;;;;;5032076;28;20041;-62
2022/07/16 06:08:14;;;;;;;11.70;7.25;;;;;;;;;;5029114;28;20401;-63
2022/07/16 06:10:39;;;;;;;12.02;6.63;;;;;;;;;;5026378;28;20387;-62
2022/07/16 06:13:05;;;;;;;10.05;6.80;;;;;;;;;;5025041;28;20125;-62
2022/07/16 06:15:30;;;;;;;13.32;7.18;;;;;;;;;;5029998;28;20033;-62
2022/07/16 06:17:56;;;;;;;11.23;7.13;;;;;;;;;;5030312;28;20037;-62
2022/07/16 06:20:22;;;;;;;12.98;6.53;;;;;;;;;;5030129;28;20108;-62
2022/07/16 06:22:48;;;;;;;15.55;7.80;;;;;;;;;;5026308;28;20030;-62
2022/07/16 06:25:13;;;;;;;11.55;6.85;;;;;;;;;;5024491;28;20034;-62
2022/07/16 06:27:43;;;;;;;16.27;7.05;;;;;;;;;;5026411;28;20070;-63
2022/07/16 06:30:09;;;;;;;15.32;7.05;;;;;;;;;;5029267;28;20498;-61
2022/07/16 06:32:34;;;;;;;13.63;6.90;;;;;;;;;;5027333;28;20046;-63
2022/07/16 06:35:00;;;;;;;15.55;6.38;;;;;;;;;;5028565;28;20071;-64
2022/07/16 06:37:25;;;;;;;10.32;6.43;;;;;;;;;;5024826;28;20029;-63
2022/07/16 06:39:51;;;;;;;13.23;6.47;;;;;;;;;;5028199;28;20025;-63
2022/07/16 06:42:16;;;;;;;10.73;6.45;;;;;;;;;;5028413;28;20438;-63
2022/07/16 06:44:42;;;;;;;10.43;6.55;;;;;;;;;;5030542;28;20021;-63
2022/07/16 06:47:08;;;;;;;14.77;6.45;;;;;;;;;;5029613;28;20083;-67
2022/07/16 06:49:33;;;;;;;12.90;6.75;;;;;;;;;;5026243;28;20037;-63
2022/07/16 06:51:58;;;;;;;11.45;6.22;;;;;;;;;;5026457;28;20467;-63
2022/07/16 06:54:24;;;;;;;11.77;6.20;;;;;;;;;;5027655;28;20042;-63
2022/07/16 06:56:49;;;;;;;10.02;6.07;;;;;;;;;;5028608;28;20025;-63
2022/07/16 06:59:15;;;;;;;11.60;6.10;;;;;;;;;;5030664;28;20036;-63
2022/07/16 07:01:43;;;;;;;15.32;6.68;;;;;;;;;;5029031;28;20050;-64
2022/07/16 07:04:08;;;;;;;13.68;7.03;;;;;;;;;;5026037;28;20030;-64
2022/07/16 07:06:34;;;;;;;8.77;6.47;;;;;;;;;;5027263;28;20163;-63
2022/07/16 07:08:59;;;;;;;12.68;5.95;;;;;;;;;;5029518;28;20021;-62
2022/07/16 07:11:24;;;;;;;7.95;5.93;;;;;;;;;;5024446;28;20040;-63
2022/07/16 07:13:50;;;;;;;11.02;6.30;;;;;;;;;;5024032;28;20111;-63
2022/07/16 07:16:16;;;;;;;12.30;6.68;;;;;;;;;;5023773;28;20052;-62
2022/07/16 07:18:42;;;;;;;10.25;6.45;;;;;;;;;;5023258;28;20111;-62
2022/07/16 07:21:07;;;;;;;13.85;6.60;;;;;;;;;;5023266;28;20083;-63
2022/07/16 07:23:33;;;;;;;7.40;6.35;;;;;;;;;;5028254;28;20075;-62
2022/07/16 07:25:58;;;;;;;11.88;5.90;;;;;;;;;;5023146;28;20037;-63
2022/07/16 07:28:24;;;;;;;9.50;6.55;;;;;;;;;;5025641;28;20115;-63
2022/07/16 07:30:49;;;;;;;10.77;6.18;;;;;;;;;;5024965;28;20163;-60
2022/07/16 07:33:14;;;;;;;15.38;6.82;;;;;;;;;;5022742;28;20029;-61
2022/07/16 07:35:40;;;;;;;9.68;6.05;;;;;;;;;;5023951;28;20215;-61
2022/07/16 07:38:06;;;;;;;10.90;5.78;;;;;;;;;;5027310;28;20037;-60
2022/07/16 07:40:31;;;;;;;14.02;6.18;;;;;;;;;;5017562;28;20391;-61
2022/07/16 07:42:59;;;;;;;9.00;6.03;;;;;;;;;;5015296;28;20150;-61
2022/07/16 07:45:25;;;;;;;9.70;6.05;;;;;;;;;;5017356;28;20022;-60
2022/07/16 07:47:50;;;;;;;10.00;5.95;;;;;;;;;;5012995;28;20026;-60
2022/07/16 07:50:16;;;;;;;11.00;6.10;;;;;;;;;;5021797;28;20048;-60
2022/07/16 07:52:41;;;;;;;8.98;5.80;;;;;;;;;;5023645;28;20076;-61
2022/07/16 07:55:07;;;;;;;8.80;5.85;;;;;;;;;;5031393;28;20093;-60
2022/07/16 07:57:33;;;;;;;9.68;6.10;;;;;;;;;;5025877;28;20024;-60
2022/07/16 07:59:58;;;;;;;8.20;5.60;;;;;;;;;;5028695;28;20072;-60
2022/07/16 08:02:25;;;;;;;9.60;5.93;;;;;;;;;;5025160;28;20025;-60
2022/07/16 08:04:51;;;;;;;9.50;5.68;;;;;;;;;;5024636;28;20047;-60
2022/07/16 08:07:16;;;;;;;12.85;5.82;;;;;;;;;;5022821;28;20030;-60
2022/07/16 08:09:41;;;;;;;7.15;5.30;;;;;;;;;;5024583;28;20029;-60
2022/07/16 08:12:07;;;;;;;12.45;5.55;;;;;;;;;;5022466;28;20029;-60
2022/07/16 08:14:32;;;;;;;8.45;5.57;;;;;;;;;;5027428;28;20028;-58
2022/07/16 08:16:58;;;;;;;11.25;4.88;;;;;;;;;;5022805;28;20069;-59
2022/07/16 08:19:24;;;;;;;10.07;4.47;;;;;;;;;;5022164;28;20487;-59
2022/07/16 08:21:49;;;;;;;7.80;4.25;;;;;;;;;;5024642;28;20097;-59
2022/07/16 08:26:59;;;;;;;10.00;4.05;;;;;;;;;;5019689;28;20072;-59
2022/07/16 08:29:24;;;;;;;8.70;4.32;;;;;;;;;;5020949;28;20038;-58
2022/07/16 08:31:50;;;;;;;6.35;4.20;;;;;;;;;;5025297;28;20052;-58
2022/07/16 08:34:15;;;;;;;6.75;3.80;;;;;;;;;;5020266;28;20068;-59
2022/07/16 08:36:41;;;;;;;6.78;4.40;;;;;;;;;;5028998;28;20021;-58
2022/07/16 08:39:06;;;;;;;7.50;3.78;;;;;;;;;;5027848;28;20036;-59
2022/07/16 08:41:33;;;;;;;9.25;4.25;;;;;;;;;;5027524;28;20021;-59
2022/07/16 08:43:59;;;;;;;6.95;4.50;;;;;;;;;;5027846;28;20079;-58
2022/07/16 08:46:26;;;;;;;7.25;2.95;;;;;;;;;;5025123;28;20136;-59
2022/07/16 08:48:52;;;;;;;4.68;3.10;;;;;;;;;;5027826;28;20029;-59
2022/07/16 08:51:22;;;;;;;7.60;3.28;;;;;;;;;;5026347;28;20036;-59
2022/07/16 08:53:50;;;;;;;7.63;3.05;;;;;;;;;;5027482;28;20030;-59
2022/07/16 08:56:17;;;;;;;7.05;3.78;;;;;;;;;;5023962;28;20034;-59
2022/07/16 08:58:43;;;;;;;6.90;3.80;;;;;;;;;;5025061;28;20108;-59
2022/07/16 09:01:09;;;;;;;6.60;4.15;;;;;;;;;;5027863;28;20498;-59
2022/07/16 09:03:34;;;;;;;5.75;3.42;;;;;;;;;;5029295;28;20029;-59
2022/07/16 09:06:01;;;;;;;4.63;3.03;;;;;;;;;;5026086;28;20049;-59
2022/07/16 09:08:26;;;;;;;8.85;3.45;;;;;;;;;;5027548;28;20037;-59
2022/07/16 09:10:51;;;;;;;5.82;3.17;;;;;;;;;;5032387;28;20376;-59
2022/07/16 09:13:17;;;;;;;5.05;3.15;;;;;;;;;;5031943;28;20037;-59
2022/07/16 09:15:44;;;;;;;5.00;3.17;;;;;;;;;;5029776;28;20475;-59
2022/07/16 09:18:20;;;;;;;4.88;3.30;;;;;;;;;;5031967;28;20065;-59
2022/07/16 09:20:51;;;;;;;10.10;4.05;;;;;;;;;;5030296;28;20021;-59
2022/07/16 09:23:22;;;;;;;8.00;4.45;;;;;;;;;;5023758;28;20152;-60
2022/07/16 09:25:51;;;;;;;6.80;3.95;;;;;;;;;;5025695;28;20026;-60
2022/07/16 09:28:17;;;;;;;6.88;4.00;;;;;;;;;;5031788;28;20060;-59
2022/07/16 09:30:43;;;;;;;8.95;3.95;;;;;;;;;;5027342;28;20064;-59
2022/07/16 09:33:14;;;;;;;7.22;4.00;;;;;;;;;;5030920;28;20045;-59
2022/07/16 09:35:41;;;;;;;6.72;4.47;;;;;;;;;;5032101;28;20021;-58
2022/07/16 09:38:09;;;;;;;6.75;4.10;;;;;;;;;;5031649;28;20348;-58
2022/07/16 09:40:36;;;;;;;6.90;3.78;;;;;;;;;;5031289;28;20033;-58
2022/07/16 09:43:12;;;;;;;6.13;4.43;;;;;;;;;;5030159;28;20055;-58
2022/07/16 09:45:39;;;;;;;8.52;4.65;;;;;;;;;;5026836;28;20025;-59
2022/07/16 09:48:27;;;;;;;8.23;4.43;;;;;;;;;;5026819;28;20509;-59
2022/07/16 09:50:55;;;;;;;7.70;4.53;;;;;;;;;;5025010;28;20038;-59
2022/07/16 09:53:26;;;;;;;10.27;6.18;;;;;;;;;;5030416;28;20037;-59
2022/07/16 09:56:02;;;;;;;8.80;4.55;;;;;;;;;;5029118;28;20025;-59
2022/07/16 09:58:29;;;;;;;9.65;4.63;;;;;;;;;;5026254;28;20220;-59
2022/07/16 10:00:55;;;;;;;9.13;4.55;;;;;;;;;;5028093;28;20032;-59
2022/07/16 10:03:21;;;;;;;6.97;4.20;;;;;;;;;;5030035;28;20108;-58
2022/07/16 10:05:47;;;;;;;5.80;4.32;;;;;;;;;;5031063;28;20036;-59
2022/07/16 10:08:14;;;;;;;7.60;4.43;;;;;;;;;;5026667;28;20472;-59
2022/07/16 10:10:39;;;;;;;7.43;4.72;;;;;;;;;;5030057;28;20057;-58
2022/07/16 10:13:05;;;;;;;8.82;4.78;;;;;;;;;;5028212;28;20080;-58
2022/07/16 10:15:31;;;;;;;8.65;4.97;;;;;;;;;;5026223;28;20029;-59
2022/07/16 10:17:57;;;;;;;7.43;4.75;;;;;;;;;;5026293;28;20073;-60
2022/07/16 10:20:22;;;;;;;9.50;4.53;;;;;;;;;;5030255;28;20025;-60
2022/07/16 10:22:50;;;;;;;9.32;5.03;;;;;;;;;;5021869;28;20444;-59
2022/07/16 10:25:23;;;;;;;7.33;5.23;;;;;;;;;;5024528;28;20026;-59
2022/07/16 10:27:50;;;;;;;7.63;4.82;;;;;;;;;;5026260;28;20077;-59
2022/07/16 10:30:23;;;;;;;6.60;4.47;;;;;;;;;;5022746;28;20183;-59
2022/07/16 10:33:00;;;;;;;7.07;4.47;;;;;;;;;;5021950;28;20061;-59
2022/07/16 10:35:31;;;;;;;8.68;4.63;;;;;;;;;;5032582;28;20088;-59
2022/07/16 10:38:13;;;;;;;7.93;4.53;;;;;;;;;;5029428;28;20036;-59
2022/07/16 10:40:40;;;;;;;8.48;4.82;;;;;;;;;;5027252;28;20029;-59
2022/07/16 10:43:09;;;;;;;8.50;4.40;;;;;;;;;;5029470;28;20049;-59
2022/07/16 10:45:57;;;;;;;8.63;4.70;;;;;;;;;;5028550;28;20120;-59
2022/07/16 10:48:50;;;;;;;6.10;4.23;;;;;;;;;;5026575;28;20017;-59
2022/07/16 10:51:21;;;;;;;7.88;4.38;;;;;;;;;;5027298;28;20303;-59
2022/07/16 10:54:01;;;;;;;6.93;4.72;;;;;;;;;;5029471;28;20029;-59
2022/07/16 10:56:40;;;;;;;7.80;4.30;;;;;;;;;;5027472;28;20037;-59
2022/07/16 10:59:08;;;;;;;5.68;4.55;;;;;;;;;;5026252;28;20034;-59
2022/07/16 11:01:35;;;;;;;7.53;4.23;;;;;;;;;;5026132;28;20133;-59
2022/07/16 11:04:02;;;;;;;7.25;3.92;;;;;;;;;;5026899;28;20029;-59
2022/07/16 11:06:28;;;;;;;7.55;4.15;;;;;;;;;;5027665;28;20108;-59
2022/07/16 11:08:58;;;;;;;6.47;4.45;;;;;;;;;;5030115;28;20112;-59
2022/07/16 11:11:40;;;;;;;6.53;4.03;;;;;;;;;;5022999;28;20017;-59
2022/07/16 11:14:07;;;;;;;5.18;3.60;;;;;;;;;;5024645;28;20033;-59
2022/07/16 11:16:33;;;;;;;6.03;4.22;;;;;;;;;;5024779;28;20039;-59
2022/07/16 11:19:00;;;;;;;8.20;3.88;;;;;;;;;;5026558;28;20021;-60
2022/07/16 11:21:25;;;;;;;7.13;3.90;;;;;;;;;;5027606;28;20021;-60
2022/07/16 11:23:54;;;;;;;6.90;4.05;;;;;;;;;;5020788;28;20037;-60
2022/07/16 11:26:20;;;;;;;7.43;3.38;;;;;;;;;;5025835;28;20112;-60
2022/07/16 11:28:56;;;;;;;4.93;3.83;;;;;;;;;;5023218;28;20036;-60
2022/07/16 11:31:25;;;;;;;5.65;3.75;;;;;;;;;;5027786;28;20029;-60
2022/07/16 11:33:52;;;;;;;4.28;3.28;;;;;;;;;;5023856;28;20025;-60
2022/07/16 11:36:19;;;;;;;6.18;3.85;;;;;;;;;;5030528;28;20538;-60
2022/07/16 11:38:45;;;;;;;6.05;3.60;;;;;;;;;;5029596;28;20029;-60
2022/07/16 11:41:11;;;;;;;5.88;3.63;;;;;;;;;;5025501;28;20455;-60
2022/07/16 11:43:36;;;;;;;10.88;3.65;;;;;;;;;;5028007;28;20033;-60
2022/07/16 11:46:02;;;;;;;7.13;2.95;;;;;;;;;;5027854;28;20040;-60
2022/07/16 11:48:37;;;;;;;5.07;3.17;;;;;;;;;;5030096;28;20064;-60
2022/07/16 11:51:08;;;;;;;4.43;2.90;;;;;;;;;;5028851;28;20521;-60
2022/07/16 11:53:36;;;;;;;3.78;2.67;;;;;;;;;;5026629;28;20503;-60
2022/07/16 11:56:02;;;;;;;5.50;2.78;;;;;;;;;;5026930;28;20033;-60
2022/07/16 11:58:28;;;;;;;4.25;2.50;;;;;;;;;;5028456;28;20029;-60
2022/07/16 12:00:54;;;;;;;4.80;2.80;;;;;;;;;;5025172;28;20124;-60
2022/07/16 12:03:20;;;;;;;5.13;3.25;;;;;;;;;;5025685;28;20030;-60
2022/07/16 12:05:46;;;;;;;6.47;3.20;;;;;;;;;;5025739;28;20355;-60
2022/07/16 12:08:12;;;;;;;5.45;2.78;;;;;;;;;;5024678;28;20508;-60
2022/07/16 12:10:37;;;;;;;3.97;2.72;;;;;;;;;;5024089;28;20117;-60
2022/07/16 12:13:06;;;;;;;6.47;3.10;;;;;;;;;;5019869;28;20117;-60
2022/07/16 12:15:49;;;;;;;;;;;;;;;;;;5024243;28;20506;-60
2022/07/16 12:18:15;;;;;;;4.85;2.75;;;;;;;;;;5022807;28;19916;-60
2022/07/16 12:20:40;;;;;;;4.00;2.70;;;;;;;;;;5022440;28;20048;-61
2022/07/16 12:23:10;;;;;;;3.53;2.50;;;;;;;;;;5027996;28;20025;-61
2022/07/16 12:25:38;;;;;;;6.85;2.90;;;;;;;;;;5022874;28;20033;-61
2022/07/16 12:28:05;;;;;;;6.35;2.42;;;;;;;;;;5023391;28;20557;-61
2022/07/16 12:30:31;;;;;;;4.22;2.70;;;;;;;;;;5022495;28;20407;-60
2022/07/16 12:32:58;;;;;;;3.63;2.40;;;;;;;;;;5023662;28;20083;-60
2022/07/16 12:35:37;;;;;;;4.22;2.47;;;;;;;;;;5028888;28;20044;-61
2022/07/16 12:38:04;;;;;;;4.80;2.78;;;;;;;;;;5024619;28;20464;-60
2022/07/16 12:40:31;;;;;;;4.07;2.65;;;;;;;;;;5028137;28;20125;-61
2022/07/16 12:42:58;;;;;;;4.40;2.40;;;;;;;;;;5026281;28;20463;-60
2022/07/16 12:45:23;;;;;;;5.32;2.60;;;;;;;;;;5027323;28;20443;-60
2022/07/16 12:47:49;;;;;;;4.45;2.70;;;;;;;;;;5029169;28;20025;-61
2022/07/16 12:50:14;;;;;;;4.68;2.30;;;;;;;;;;5023269;28;20571;-60
2022/07/16 12:52:41;;;;;;;6.13;2.40;;;;;;;;;;5027140;28;20036;-61
2022/07/16 13:00:35;;;;;;;4.25;2.25;;;;;;;;;;5020800;28;20083;-61
2022/07/16 13:03:02;;;;;;;4.15;2.30;;;;;;;;;;5025624;28;20025;-60
2022/07/16 13:05:28;;;;;;;7.07;2.63;;;;;;;;;;5022618;28;20044;-60
2022/07/16 13:07:53;;;;;;;5.63;2.10;;;;;;;;;;5022023;28;20029;-60
2022/07/16 13:10:18;;;;;;;3.10;2.05;;;;;;;;;;5020536;28;20471;-60
2022/07/16 13:12:44;;;;;;;5.78;2.50;;;;;;;;;;5026775;28;20235;-60
2022/07/16 13:15:10;;;;;;;3.40;2.10;;;;;;;;;;5022738;28;20495;-61
2022/07/16 13:17:35;;;;;;;4.10;2.35;;;;;;;;;;5021425;28;20396;-60
2022/07/16 13:20:02;;;;;;;2.67;1.80;;;;;;;;;;5021646;28;20032;-61
2022/07/16 13:22:27;;;;;;;5.72;2.03;;;;;;;;;;5020984;28;20153;-60
2022/07/16 13:24:53;;;;;;;4.40;2.10;;;;;;;;;;5027791;28;20104;-61
2022/07/16 13:27:18;;;;;;;4.25;1.88;;;;;;;;;;5025060;28;20483;-61
2022/07/16 13:29:44;;;;;;;4.22;2.00;;;;;;;;;;5017910;28;20052;-60
2022/07/16 13:32:09;;;;;;;5.20;1.90;;;;;;;;;;5025525;28;20045;-60
2022/07/16 13:34:34;;;;;;;4.85;1.95;;;;;;;;;;5029048;28;20029;-61
2022/07/16 13:37:00;;;;;;;4.85;1.98;;;;;;;;;;5028709;28;20089;-61
2022/07/16 13:39:25;;;;;;;3.63;1.95;;;;;;;;;;5025700;28;20464;-61
2022/07/16 13:41:51;;;;;;;4.97;2.20;;;;;;;;;;5027257;28;20107;-61
2022/07/16 13:44:17;;;;;;;3.53;1.90;;;;;;;;;;5026427;28;20565;-61
2022/07/16 13:46:42;;;;;;;3.15;1.80;;;;;;;;;;5026361;28;20029;-61
2022/07/16 13:49:08;;;;;;;3.25;2.00;;;;;;;;;;5028238;28;20479;-61
2022/07/16 13:51:33;;;;;;;4.60;2.17;;;;;;;;;;5027031;28;20091;-61
2022/07/16 13:53:58;;;;;;;3.83;1.73;;;;;;;;;;5029028;28;20041;-61
2022/07/16 13:56:24;;;;;;;4.55;1.80;;;;;;;;;;5027262;28;20449;-61
2022/07/16 13:58:49;;;;;;;3.15;2.05;;;;;;;;;;5026872;28;20071;-61
2022/07/16 14:01:15;;;;;;;3.60;1.63;;;;;;;;;;5027194;28;20108;-60
2022/07/16 14:03:40;;;;;;;3.88;1.70;;;;;;;;;;5030805;28;20017;-60
2022/07/16 14:06:06;;;;;;;2.28;1.80;;;;;;;;;;5028415;28;20500;-61
2022/07/16 14:08:32;;;;;;;4.88;1.92;;;;;;;;;;5025822;28;20017;-59
2022/07/16 14:10:58;;;;;;;5.03;1.90;;;;;;;;;;5026363;28;20546;-60
2022/07/16 14:13:25;;;;;;;3.75;1.90;;;;;;;;;;5025747;28;20029;-60
2022/07/16 14:15:51;;;;;;;2.22;1.55;;;;;;;;;;5027325;28;20041;-61
2022/07/16 14:18:16;;;;;;;9.40;2.75;;;;;;;;;;5026447;28;20490;-60
2022/07/16 14:20:42;;;;;;;2.65;1.63;;;;;;;;;;5025288;28;20175;-60
2022/07/16 14:23:10;;;;;;;3.65;1.88;;;;;;;;;;5021838;28;20068;-60
2022/07/16 14:25:36;;;;;;;2.90;1.60;;;;;;;;;;5021691;28;20033;-60
2022/07/16 14:28:03;;;;;;;2.40;1.60;;;;;;;;;;5022281;28;20028;-60
2022/07/16 14:30:29;;;;;;;3.70;1.48;;;;;;;;;;5028812;28;20600;-60
2022/07/16 14:32:54;;;;;;;6.38;1.75;;;;;;;;;;5028371;28;20116;-60
2022/07/16 14:35:20;;;;;;;2.60;1.67;;;;;;;;;;5031706;28;20084;-60
2022/07/16 14:37:46;;;;;;;2.35;1.63;;;;;;;;;;5030606;28;20025;-60
2022/07/16 14:40:16;;;;;;;2.65;1.50;;;;;;;;;;5025672;28;20064;-60
2022/07/16 14:42:43;;;;;;;1.70;1.60;;;;;;;;;;5028318;28;20403;-60
2022/07/16 14:45:11;;;;;;;2.55;1.65;;;;;;;;;;5029516;28;20365;-60
2022/07/16 14:47:37;;;;;;;3.05;1.70;;;;;;;;;;5025637;28;20456;-60